Terminal Aerodrome Forecast
Issued by NWS Sioux Falls, SD

Home | Current Version | Previous Version | Text Only | Print | Product List | Glossary Off
Versions: 1 2 3 4 5 6 7 8 9 10 11 12 13

000
FTUS43 KFSD 031040 AAB
TAFHON
TAF AMD
KHON 031040Z 0311/0406 16005KT 1SM -SN OVC025
     FM031300 35030G40KT 1/2SM -SN BLSN OVC009
     FM031700 34028G38KT 4SM BLSN BKN030
     FM032100 33020G30KT P6SM SCT035 BKN150
     FM040100 29008KT P6SM SKC=

USA.gov is the U.S. government's official web portal to all federal, state and local government web resources and services.